Panora, Iowa
Current Conditions -  °F | °C
As of 12:15 AM on Saturday 29 Nov 2014 (Local Time) from KPRO Reporting Station
Clear Clear  
Wind Chill: 22°   Ceiling: Unl
Heat Index: 29°   Visibility: 7mi
Dew Point: 28°   Wind: 7mph
Humidity: 97%   Direction: 110°ESE
Pressure: 29.6"   Gusts: NA
Location:  41.69°N, 94.36°W
Report Text: KPRO 290615Z AUTO 11006KT 7SM CLR M02/M02 A2960 RMK AO2 T10161020
Loading
Personal Weather Stations






























Interactive Weather Map New forecast layout! Learn more

10-Day Weather Forecast

Advertisements
Track Severe Weather on mobile